sensor_id;sensor_type;location;lat;lon;timestamp;temperature;humidity
75113;DHT22;63692;47.338;8.520;2022-10-16T05:17:14;13.70;91.30
75113;DHT22;63692;47.338;8.520;2022-10-16T05:22:07;13.60;91.20
75113;DHT22;63692;47.338;8.520;2022-10-16T05:24:33;13.60;91.30
75113;DHT22;63692;47.338;8.520;2022-10-16T05:26:58;13.60;91.30
75113;DHT22;63692;47.338;8.520;2022-10-16T05:29:24;13.70;91.20
75113;DHT22;63692;47.338;8.520;2022-10-16T05:31:54;13.70;91.20
75113;DHT22;63692;47.338;8.520;2022-10-16T05:34:20;13.70;91.30
75113;DHT22;63692;47.338;8.520;2022-10-16T05:36:46;13.60;91.30
75113;DHT22;63692;47.338;8.520;2022-10-16T05:39:12;13.60;91.40
75113;DHT22;63692;47.338;8.520;2022-10-16T05:41:38;13.60;91.40
75113;DHT22;63692;47.338;8.520;2022-10-16T05:44:05;13.60;91.40
75113;DHT22;63692;47.338;8.520;2022-10-16T05:46:32;13.60;91.50
75113;DHT22;63692;47.338;8.520;2022-10-16T05:48:57;13.70;91.40
75113;DHT22;63692;47.338;8.520;2022-10-16T05:51:23;13.70;91.70
75113;DHT22;63692;47.338;8.520;2022-10-16T05:53:49;13.70;91.60
75113;DHT22;63692;47.338;8.520;2022-10-16T05:56:15;13.70;91.20
75113;DHT22;63692;47.338;8.520;2022-10-16T05:58:41;13.70;91.20
75113;DHT22;63692;47.338;8.520;2022-10-16T06:01:10;13.70;91.20
75113;DHT22;63692;47.338;8.520;2022-10-16T06:06:13;13.70;91.40
75113;DHT22;63692;47.338;8.520;2022-10-16T06:11:09;13.70;91.20
75113;DHT22;63692;47.338;8.520;2022-10-16T06:13:35;13.70;91.10
75113;DHT22;63692;47.338;8.520;2022-10-16T06:16:02;13.80;91.00
75113;DHT22;63692;47.338;8.520;2022-10-16T06:18:28;13.70;91.30
75113;DHT22;63692;47.338;8.520;2022-10-16T06:20:55;13.80;91.20
75113;DHT22;63692;47.338;8.520;2022-10-16T06:23:21;13.70;91.00
75113;DHT22;63692;47.338;8.520;2022-10-16T06:25:47;13.70;91.10
75113;DHT22;63692;47.338;8.520;2022-10-16T06:28:16;13.60;91.10
75113;DHT22;63692;47.338;8.520;2022-10-16T06:30:42;13.60;91.20
75113;DHT22;63692;47.338;8.520;2022-10-16T06:33:11;13.60;91.20
75113;DHT22;63692;47.338;8.520;2022-10-16T06:35:37;13.60;91.40
75113;DHT22;63692;47.338;8.520;2022-10-16T06:38:02;13.60;91.30
75113;DHT22;63692;47.338;8.520;2022-10-16T06:40:28;13.60;91.40
75113;DHT22;63692;47.338;8.520;2022-10-16T06:42:57;13.60;91.40
75113;DHT22;63692;47.338;8.520;2022-10-16T06:45:23;13.60;91.30
75113;DHT22;63692;47.338;8.520;2022-10-16T06:47:48;13.70;91.30
75113;DHT22;63692;47.338;8.520;2022-10-16T06:50:14;13.70;91.30
75113;DHT22;63692;47.338;8.520;2022-10-16T06:52:40;13.70;91.10
75113;DHT22;63692;47.338;8.520;2022-10-16T06:55:06;13.70;91.10
75113;DHT22;63692;47.338;8.520;2022-10-16T06:57:31;13.80;91.50
75113;DHT22;63692;47.338;8.520;2022-10-16T06:59:57;13.80;91.50
75113;DHT22;63692;47.338;8.520;2022-10-16T07:02:23;13.90;91.10
75113;DHT22;63692;47.338;8.520;2022-10-16T07:04:48;13.90;90.90
75113;DHT22;63692;47.338;8.520;2022-10-16T07:07:14;14.00;91.20
75113;DHT22;63692;47.338;8.520;2022-10-16T07:09:40;14.00;91.10
75113;DHT22;63692;47.338;8.520;2022-10-16T07:12:06;14.00;91.10
75113;DHT22;63692;47.338;8.520;2022-10-16T07:14:31;14.10;91.00
75113;DHT22;63692;47.338;8.520;2022-10-16T07:16:57;14.10;90.70
75113;DHT22;63692;47.338;8.520;2022-10-16T07:19:23;14.10;90.60
75113;DHT22;63692;47.338;8.520;2022-10-16T07:21:48;14.10;90.70
75113;DHT22;63692;47.338;8.520;2022-10-16T07:24:16;14.10;90.90
75113;DHT22;63692;47.338;8.520;2022-10-16T07:26:44;14.00;91.10
75113;DHT22;63692;47.338;8.520;2022-10-16T07:29:17;14.00;91.10
75113;DHT22;63692;47.338;8.520;2022-10-16T07:31:44;14.00;91.40
75113;DHT22;63692;47.338;8.520;2022-10-16T07:34:10;14.00;91.30
75113;DHT22;63692;47.338;8.520;2022-10-16T07:36:36;14.00;91.40
75113;DHT22;63692;47.338;8.520;2022-10-16T07:39:03;14.00;91.30
75113;DHT22;63692;47.338;8.520;2022-10-16T07:41:29;14.00;91.40
75113;DHT22;63692;47.338;8.520;2022-10-16T07:43:55;14.10;91.20
75113;DHT22;63692;47.338;8.520;2022-10-16T07:46:26;14.10;91.00
75113;DHT22;63692;47.338;8.520;2022-10-16T07:48:52;14.10;91.00
75113;DHT22;63692;47.338;8.520;2022-10-16T07:51:19;14.10;91.30
75113;DHT22;63692;47.338;8.520;2022-10-16T07:53:46;14.10;91.40
75113;DHT22;63692;47.338;8.520;2022-10-16T07:56:12;14.10;91.50
75113;DHT22;63692;47.338;8.520;2022-10-16T07:58:38;14.00;91.50
75113;DHT22;63692;47.338;8.520;2022-10-16T08:01:06;14.00;91.70
75113;DHT22;63692;47.338;8.520;2022-10-16T08:03:32;14.00;91.70
75113;DHT22;63692;47.338;8.520;2022-10-16T08:05:58;14.00;91.80
75113;DHT22;63692;47.338;8.520;2022-10-16T08:08:25;14.10;91.50
75113;DHT22;63692;47.338;8.520;2022-10-16T08:10:50;14.10;91.40
75113;DHT22;63692;47.338;8.520;2022-10-16T08:13:16;14.10;91.30
75113;DHT22;63692;47.338;8.520;2022-10-16T08:15:42;14.20;91.20
75113;DHT22;63692;47.338;8.520;2022-10-16T08:18:09;14.30;91.00
75113;DHT22;63692;47.338;8.520;2022-10-16T08:20:35;14.40;90.90
75113;DHT22;63692;47.338;8.520;2022-10-16T08:23:01;14.40;91.00
75113;DHT22;63692;47.338;8.520;2022-10-16T08:25:27;14.40;90.90
75113;DHT22;63692;47.338;8.520;2022-10-16T08:27:53;14.50;90.90
75113;DHT22;63692;47.338;8.520;2022-10-16T08:30:20;14.50;90.80
75113;DHT22;63692;47.338;8.520;2022-10-16T08:32:46;14.50;90.90
75113;DHT22;63692;47.338;8.520;2022-10-16T08:35:13;14.60;90.70
75113;DHT22;63692;47.338;8.520;2022-10-16T08:37:39;14.70;90.70
75113;DHT22;63692;47.338;8.520;2022-10-16T08:40:19;14.80;90.70
75113;DHT22;63692;47.338;8.520;2022-10-16T08:43:47;14.90;90.10
75113;DHT22;63692;47.338;8.520;2022-10-16T08:48:51;15.10;89.80
75113;DHT22;63692;47.338;8.520;2022-10-16T08:51:31;15.10;89.60
75113;DHT22;63692;47.338;8.520;2022-10-16T08:54:01;15.20;89.00
75113;DHT22;63692;47.338;8.520;2022-10-16T08:56:28;15.30;88.70
75113;DHT22;63692;47.338;8.520;2022-10-16T08:58:54;15.30;88.50
75113;DHT22;63692;47.338;8.520;2022-10-16T09:01:22;15.30;88.40
75113;DHT22;63692;47.338;8.520;2022-10-16T09:06:54;15.40;87.60
75113;DHT22;63692;47.338;8.520;2022-10-16T09:15:35;15.60;87.30
75113;DHT22;63692;47.338;8.520;2022-10-16T09:21:13;15.70;86.90
75113;DHT22;63692;47.338;8.520;2022-10-16T09:23:40;15.80;87.20
75113;DHT22;63692;47.338;8.520;2022-10-16T09:26:11;15.90;88.00
75113;DHT22;63692;47.338;8.520;2022-10-16T09:28:37;15.90;87.40
75113;DHT22;63692;47.338;8.520;2022-10-16T09:31:03;16.00;87.20
75113;DHT22;63692;47.338;8.520;2022-10-16T09:33:33;16.10;86.70
75113;DHT22;63692;47.338;8.520;2022-10-16T09:36:03;16.10;86.40
75113;DHT22;63692;47.338;8.520;2022-10-16T09:38:36;16.10;86.00
75113;DHT22;63692;47.338;8.520;2022-10-16T09:41:12;16.20;85.80
75113;DHT22;63692;47.338;8.520;2022-10-16T09:43:41;16.30;85.70
75113;DHT22;63692;47.338;8.520;2022-10-16T09:46:19;16.30;85.60
75113;DHT22;63692;47.338;8.520;2022-10-16T09:48:50;16.30;85.20
75113;DHT22;63692;47.338;8.520;2022-10-16T09:51:34;16.40;85.00
75113;DHT22;63692;47.338;8.520;2022-10-16T09:56:36;16.40;84.20
75113;DHT22;63692;47.338;8.520;2022-10-16T09:59:11;16.50;84.40
75113;DHT22;63692;47.338;8.520;2022-10-16T10:01:46;16.50;84.10
75113;DHT22;63692;47.338;8.520;2022-10-16T10:04:12;16.50;84.10
75113;DHT22;63692;47.338;8.520;2022-10-16T10:06:47;16.60;83.70
75113;DHT22;63692;47.338;8.520;2022-10-16T10:11:59;16.70;83.10
75113;DHT22;63692;47.338;8.520;2022-10-16T10:17:09;16.70;83.50
75113;DHT22;63692;47.338;8.520;2022-10-16T10:19:56;16.80;82.80
75113;DHT22;63692;47.338;8.520;2022-10-16T10:22:32;16.90;82.10
75113;DHT22;63692;47.338;8.520;2022-10-16T10:30:44;17.00;81.50
75113;DHT22;63692;47.338;8.520;2022-10-16T10:36:11;17.10;81.00
75113;DHT22;63692;47.338;8.520;2022-10-16T10:39:04;17.10;80.50
75113;DHT22;63692;47.338;8.520;2022-10-16T10:52:33;17.40;77.80
75113;DHT22;63692;47.338;8.520;2022-10-16T11:00:54;17.50;77.00
75113;DHT22;63692;47.338;8.520;2022-10-16T11:05:54;17.60;75.80
75113;DHT22;63692;47.338;8.520;2022-10-16T11:08:38;17.70;74.70
75113;DHT22;63692;47.338;8.520;2022-10-16T11:11:40;17.70;74.70
75113;DHT22;63692;47.338;8.520;2022-10-16T11:16:40;17.80;74.80
75113;DHT22;63692;47.338;8.520;2022-10-16T11:25:04;17.90;73.10
75113;DHT22;63692;47.338;8.520;2022-10-16T11:27:51;17.90;73.50
75113;DHT22;63692;47.338;8.520;2022-10-16T11:30:26;17.90;75.10
75113;DHT22;63692;47.338;8.520;2022-10-16T11:33:25;17.90;74.10
75113;DHT22;63692;47.338;8.520;2022-10-16T11:35:59;17.90;73.80
75113;DHT22;63692;47.338;8.520;2022-10-16T11:38:28;18.00;73.40
75113;DHT22;63692;47.338;8.520;2022-10-16T11:40:58;18.00;74.80
75113;DHT22;63692;47.338;8.520;2022-10-16T11:43:32;18.00;73.50
75113;DHT22;63692;47.338;8.520;2022-10-16T11:46:08;18.10;73.20
75113;DHT22;63692;47.338;8.520;2022-10-16T11:48:46;18.10;73.80
75113;DHT22;63692;47.338;8.520;2022-10-16T11:51:36;18.10;72.00
75113;DHT22;63692;47.338;8.520;2022-10-16T11:54:32;18.20;72.40
75113;DHT22;63692;47.338;8.520;2022-10-16T11:57:07;18.20;71.50
75113;DHT22;63692;47.338;8.520;2022-10-16T12:08:12;18.50;69.70
75113;DHT22;63692;47.338;8.520;2022-10-16T12:10:40;18.50;70.10
75113;DHT22;63692;47.338;8.520;2022-10-16T12:13:35;18.60;69.50
75113;DHT22;63692;47.338;8.520;2022-10-16T12:18:33;18.80;68.30
75113;DHT22;63692;47.338;8.520;2022-10-16T12:20:59;18.80;67.80
75113;DHT22;63692;47.338;8.520;2022-10-16T12:23:31;18.90;68.60
75113;DHT22;63692;47.338;8.520;2022-10-16T12:26:01;19.00;69.30
75113;DHT22;63692;47.338;8.520;2022-10-16T12:28:29;19.10;68.90
75113;DHT22;63692;47.338;8.520;2022-10-16T12:35:55;19.30;68.80
75113;DHT22;63692;47.338;8.520;2022-10-16T12:38:33;19.40;68.80
75113;DHT22;63692;47.338;8.520;2022-10-16T12:41:06;19.50;67.70
75113;DHT22;63692;47.338;8.520;2022-10-16T12:43:45;19.70;67.70
75113;DHT22;63692;47.338;8.520;2022-10-16T12:48:38;19.80;67.10
75113;DHT22;63692;47.338;8.520;2022-10-16T12:51:24;20.00;67.10
75113;DHT22;63692;47.338;8.520;2022-10-16T12:54:12;20.10;67.00
75113;DHT22;63692;47.338;8.520;2022-10-16T13:30:26;22.60;58.90
75113;DHT22;63692;47.338;8.520;2022-10-16T13:35:33;22.40;58.10
75113;DHT22;63692;47.338;8.520;2022-10-16T13:40:37;22.10;59.20
75113;DHT22;63692;47.338;8.520;2022-10-16T13:43:13;22.00;59.60
75113;DHT22;63692;47.338;8.520;2022-10-16T13:45:38;22.00;59.60
75113;DHT22;63692;47.338;8.520;2022-10-16T13:48:05;22.10;59.80
75113;DHT22;63692;47.338;8.520;2022-10-16T13:50:32;22.20;60.50
75113;DHT22;63692;47.338;8.520;2022-10-16T13:53:12;22.10;61.50
75113;DHT22;63692;47.338;8.520;2022-10-16T13:55:38;22.00;61.20
75113;DHT22;63692;47.338;8.520;2022-10-16T13:58:10;22.00;60.50
75113;DHT22;63692;47.338;8.520;2022-10-16T14:00:37;22.00;61.20
75113;DHT22;63692;47.338;8.520;2022-10-16T14:03:06;22.00;60.30
75113;DHT22;63692;47.338;8.520;2022-10-16T14:05:33;22.10;60.50
75113;DHT22;63692;47.338;8.520;2022-10-16T14:08:00;22.10;60.10
75113;DHT22;63692;47.338;8.520;2022-10-16T14:10:31;22.20;60.30
75113;DHT22;63692;47.338;8.520;2022-10-16T14:13:04;22.20;59.90
75113;DHT22;63692;47.338;8.520;2022-10-16T14:15:32;22.30;59.50
75113;DHT22;63692;47.338;8.520;2022-10-16T14:17:58;22.30;59.20
75113;DHT22;63692;47.338;8.520;2022-10-16T14:20:29;22.40;59.30
75113;DHT22;63692;47.338;8.520;2022-10-16T14:23:23;22.50;59.40
75113;DHT22;63692;47.338;8.520;2022-10-16T14:25:53;22.60;58.70
75113;DHT22;63692;47.338;8.520;2022-10-16T14:28:21;22.70;58.20
75113;DHT22;63692;47.338;8.520;2022-10-16T14:30:54;22.90;57.30
75113;DHT22;63692;47.338;8.520;2022-10-16T14:33:25;23.10;56.90
75113;DHT22;63692;47.338;8.520;2022-10-16T14:36:05;23.30;56.80
75113;DHT22;63692;47.338;8.520;2022-10-16T14:38:41;23.50;56.10
75113;DHT22;63692;47.338;8.520;2022-10-16T14:41:08;23.70;55.70
75113;DHT22;63692;47.338;8.520;2022-10-16T14:43:39;23.90;54.40
75113;DHT22;63692;47.338;8.520;2022-10-16T14:46:14;23.90;54.50
75113;DHT22;63692;47.338;8.520;2022-10-16T14:48:42;24.10;55.10
75113;DHT22;63692;47.338;8.520;2022-10-16T14:51:13;24.30;53.50
75113;DHT22;63692;47.338;8.520;2022-10-16T14:53:40;24.50;52.50
75113;DHT22;63692;47.338;8.520;2022-10-16T14:56:17;24.50;53.30
75113;DHT22;63692;47.338;8.520;2022-10-16T14:58:43;24.50;55.40
75113;DHT22;63692;47.338;8.520;2022-10-16T15:01:10;24.50;54.40
75113;DHT22;63692;47.338;8.520;2022-10-16T15:03:37;24.70;54.20
75113;DHT22;63692;47.338;8.520;2022-10-16T15:06:03;24.70;54.50
75113;DHT22;63692;47.338;8.520;2022-10-16T15:08:29;24.70;54.00
75113;DHT22;63692;47.338;8.520;2022-10-16T15:10:55;24.70;55.40
75113;DHT22;63692;47.338;8.520;2022-10-16T15:13:20;24.40;55.70
75113;DHT22;63692;47.338;8.520;2022-10-16T15:15:47;24.10;56.50
75113;DHT22;63692;47.338;8.520;2022-10-16T15:18:14;23.90;57.70
75113;DHT22;63692;47.338;8.520;2022-10-16T15:20:45;23.50;58.90
75113;DHT22;63692;47.338;8.520;2022-10-16T15:23:18;23.30;60.40
75113;DHT22;63692;47.338;8.520;2022-10-16T15:35:35;22.00;63.10
75113;DHT22;63692;47.338;8.520;2022-10-16T15:38:01;21.80;64.20
75113;DHT22;63692;47.338;8.520;2022-10-16T15:40:26;21.70;67.20
75113;DHT22;63692;47.338;8.520;2022-10-16T15:42:52;21.60;68.30
75113;DHT22;63692;47.338;8.520;2022-10-16T15:45:18;21.40;69.20
75113;DHT22;63692;47.338;8.520;2022-10-16T15:47:45;21.30;69.50
75113;DHT22;63692;47.338;8.520;2022-10-16T15:50:13;21.20;69.50
75113;DHT22;63692;47.338;8.520;2022-10-16T15:52:39;21.10;69.90
75113;DHT22;63692;47.338;8.520;2022-10-16T15:55:10;21.00;70.10
75113;DHT22;63692;47.338;8.520;2022-10-16T15:57:36;20.90;69.70
75113;DHT22;63692;47.338;8.520;2022-10-16T16:00:14;20.90;70.10
75113;DHT22;63692;47.338;8.520;2022-10-16T16:02:41;20.70;70.80
75113;DHT22;63692;47.338;8.520;2022-10-16T16:05:08;20.60;71.50
75113;DHT22;63692;47.338;8.520;2022-10-16T16:07:35;20.50;71.50
75113;DHT22;63692;47.338;8.520;2022-10-16T16:10:02;20.40;72.40
75113;DHT22;63692;47.338;8.520;2022-10-16T16:12:28;20.20;72.80
